createdAt,value
2022-12-05T00:00:25.907Z,11.90
2022-12-05T00:02:28.965Z,10.85
2022-12-05T00:04:32.158Z,10.98
2022-12-05T00:06:35.465Z,10.68
2022-12-05T00:08:36.930Z,10.50
2022-12-05T00:10:39.789Z,11.23
2022-12-05T00:12:41.890Z,11.20
2022-12-05T00:14:43.575Z,11.75
2022-12-05T00:16:45.502Z,11.00
2022-12-05T00:18:50.800Z,11.60
2022-12-05T00:20:52.441Z,11.23
2022-12-05T00:22:54.030Z,11.48
2022-12-05T00:24:58.189Z,11.75
2022-12-05T00:26:59.775Z,11.45
2022-12-05T00:29:01.279Z,11.45
2022-12-05T00:31:21.660Z,11.57
2022-12-05T00:33:23.224Z,11.30
2022-12-05T00:35:25.249Z,11.13
2022-12-05T00:37:26.980Z,11.75
2022-12-05T00:39:30.667Z,12.40
2022-12-05T00:41:33.584Z,11.98
2022-12-05T00:43:38.754Z,11.00
2022-12-05T00:45:40.318Z,10.77
2022-12-05T00:47:42.010Z,11.68
2022-12-05T00:49:43.550Z,11.52
2022-12-05T00:51:46.289Z,11.07
2022-12-05T00:53:57.217Z,11.10
2022-12-05T00:56:20.439Z,11.60
2022-12-05T00:58:21.986Z,10.73
2022-12-05T01:00:23.533Z,11.05
2022-12-05T01:02:33.888Z,10.80
2022-12-05T01:04:37.718Z,12.18
2022-12-05T01:06:39.301Z,11.63
2022-12-05T01:08:41.318Z,11.20
2022-12-05T01:10:42.839Z,11.40
2022-12-05T01:12:46.398Z,11.48
2022-12-05T01:14:49.863Z,11.40
2022-12-05T01:16:54.022Z,11.27
2022-12-05T01:18:57.099Z,11.77
2022-12-05T01:20:58.629Z,11.95
2022-12-05T01:23:00.302Z,12.55
2022-12-05T01:25:01.926Z,11.88
2022-12-05T01:27:03.551Z,11.65
2022-12-05T01:29:05.596Z,11.82
2022-12-05T01:31:12.392Z,11.60
2022-12-05T01:33:17.675Z,11.48
2022-12-05T01:35:19.259Z,11.65
2022-12-05T01:37:22.066Z,12.55
2022-12-05T01:39:23.745Z,11.95
2022-12-05T01:41:34.969Z,12.20
2022-12-05T01:44:00.164Z,12.60
2022-12-05T01:46:01.720Z,11.05
2022-12-05T01:48:07.971Z,11.88
2022-12-05T01:50:12.979Z,12.60
2022-12-05T01:52:18.786Z,11.50
2022-12-05T01:54:22.564Z,11.93
2022-12-05T01:56:26.819Z,11.95
2022-12-05T01:58:33.534Z,12.07
2022-12-05T02:00:35.035Z,11.93
2022-12-05T02:02:37.130Z,12.05
2022-12-05T02:04:50.398Z,12.38
2022-12-05T02:06:51.963Z,12.45
2022-12-05T02:08:54.229Z,11.60
2022-12-05T02:10:58.095Z,12.60
2022-12-05T02:13:12.513Z,11.98
2022-12-05T02:15:37.761Z,11.50
2022-12-05T02:18:21.768Z,11.80
2022-12-05T02:20:44.688Z,11.95
2022-12-05T02:23:01.592Z,11.90
2022-12-05T02:25:17.012Z,11.65
2022-12-05T02:27:43.423Z,11.80
2022-12-05T02:29:51.326Z,10.88
2022-12-05T02:32:15.962Z,12.20
2022-12-05T02:34:30.876Z,11.98
2022-12-05T02:36:50.398Z,11.90
2022-12-05T02:39:06.997Z,11.13
2022-12-05T02:41:20.880Z,11.75
2022-12-05T02:43:29.330Z,11.55
2022-12-05T02:45:35.547Z,12.55
2022-12-05T02:47:42.170Z,12.57
2022-12-05T02:49:43.982Z,12.85
2022-12-05T02:51:48.729Z,12.70
2022-12-05T02:53:51.809Z,12.48
2022-12-05T02:55:54.634Z,12.05
2022-12-05T02:58:02.162Z,12.40
2022-12-05T03:00:07.956Z,12.85
2022-12-05T03:02:22.994Z,12.68
2022-12-05T03:04:28.945Z,11.38
2022-12-05T03:06:54.401Z,11.85
2022-12-05T03:09:02.923Z,11.15
2022-12-05T03:11:04.910Z,12.30
2022-12-05T03:13:15.445Z,11.30
2022-12-05T03:15:22.170Z,11.65
2022-12-05T03:17:29.991Z,11.02
2022-12-05T03:20:11.130Z,11.68
2022-12-05T03:22:30.190Z,11.27
2022-12-05T03:24:37.590Z,11.73
2022-12-05T03:27:13.495Z,11.90
2022-12-05T03:29:31.600Z,10.63
2022-12-05T03:32:00.536Z,11.45
2022-12-05T03:34:07.025Z,10.63
2022-12-05T03:36:18.410Z,11.65
2022-12-05T03:38:27.510Z,10.88
2022-12-05T03:40:35.069Z,10.07
2022-12-05T03:42:42.567Z,10.55
2022-12-05T03:45:18.315Z,11.18
2022-12-05T03:47:28.883Z,9.90
2022-12-05T03:49:52.654Z,10.38
2022-12-05T03:52:15.712Z,11.23
2022-12-05T03:54:25.020Z,10.65
2022-12-05T03:56:34.694Z,11.95
2022-12-05T03:58:55.387Z,10.98
2022-12-05T04:01:00.674Z,10.75
2022-12-05T04:03:08.988Z,10.60
2022-12-05T04:05:21.268Z,11.23
2022-12-05T04:07:24.361Z,11.15
2022-12-05T04:09:35.025Z,11.82
2022-12-05T04:11:43.636Z,11.35
2022-12-05T04:14:01.203Z,11.43
2022-12-05T04:16:30.321Z,11.13
2022-12-05T04:18:32.950Z,9.90
2022-12-05T04:20:59.574Z,10.90
2022-12-05T04:23:04.415Z,10.65
2022-12-05T04:25:34.050Z,10.80
2022-12-05T04:27:38.506Z,10.48
2022-12-05T04:29:52.611Z,9.57
2022-12-05T04:32:01.973Z,9.85
2022-12-05T04:34:10.137Z,10.02
2022-12-05T04:36:11.654Z,11.07
2022-12-05T04:38:27.754Z,11.45
2022-12-05T04:40:48.869Z,11.07
2022-12-05T04:42:53.786Z,10.38
2022-12-05T04:45:05.388Z,11.35
2022-12-05T04:47:12.225Z,10.95
2022-12-05T04:49:21.879Z,10.90
2022-12-05T04:51:26.577Z,11.43
2022-12-05T04:53:31.067Z,11.40
2022-12-05T04:55:37.315Z,10.50
2022-12-05T04:57:44.637Z,10.95
2022-12-05T04:59:46.807Z,10.90
2022-12-05T05:01:56.137Z,12.07
2022-12-05T05:04:23.714Z,11.55
2022-12-05T05:06:29.002Z,10.55
2022-12-05T05:08:30.619Z,11.57
2022-12-05T05:10:50.221Z,10.77
2022-12-05T05:12:51.882Z,9.95
2022-12-05T05:14:53.515Z,10.25
2022-12-05T05:16:55.757Z,10.25
2022-12-05T05:18:57.532Z,9.63
2022-12-05T05:20:59.425Z,9.02
2022-12-05T05:23:00.953Z,8.00
2022-12-05T05:25:02.574Z,7.82
2022-12-05T05:27:04.229Z,7.50
2022-12-05T05:29:06.218Z,7.25
2022-12-05T05:31:08.025Z,7.93
2022-12-05T05:33:09.497Z,6.35
2022-12-05T05:35:11.820Z,6.90
2022-12-05T05:37:16.362Z,6.70
2022-12-05T05:39:17.936Z,6.57
2022-12-05T05:41:23.271Z,6.40
2022-12-05T05:43:24.899Z,6.50
2022-12-05T05:45:31.550Z,6.53
2022-12-05T05:47:35.272Z,6.22
2022-12-05T05:49:36.784Z,5.78
2022-12-05T05:51:38.465Z,6.22
2022-12-05T05:53:43.693Z,6.22
2022-12-05T05:55:45.324Z,5.80
2022-12-05T05:57:47.108Z,6.28
2022-12-05T05:59:48.826Z,5.85
2022-12-05T06:01:50.503Z,5.63
2022-12-05T06:03:52.697Z,6.38
2022-12-05T06:05:58.846Z,5.93
2022-12-05T06:08:00.808Z,6.03
2022-12-05T06:10:02.755Z,5.68
2022-12-05T06:12:04.732Z,5.60
2022-12-05T06:14:09.758Z,6.22
2022-12-05T06:16:17.098Z,5.82
2022-12-05T06:18:24.472Z,6.00
2022-12-05T06:20:26.001Z,6.25
2022-12-05T06:22:27.557Z,5.70
2022-12-05T06:24:29.187Z,5.70
2022-12-05T06:26:30.951Z,5.88
2022-12-05T06:28:32.933Z,6.28
2022-12-05T06:30:34.507Z,5.75
2022-12-05T06:32:36.089Z,6.20
2022-12-05T06:34:37.871Z,6.35
2022-12-05T06:36:39.631Z,5.60
2022-12-05T06:38:42.614Z,5.60
2022-12-05T06:40:45.185Z,6.40
2022-12-05T06:42:46.812Z,5.93
2022-12-05T06:44:48.484Z,6.40
2022-12-05T06:46:50.260Z,6.18
2022-12-05T06:48:59.299Z,6.50
2022-12-05T06:51:00.789Z,6.70
2022-12-05T06:53:02.419Z,6.45
2022-12-05T06:55:04.972Z,6.53
2022-12-05T06:57:06.723Z,6.82
2022-12-05T06:59:08.355Z,6.28
2022-12-05T07:01:39.142Z,6.63
2022-12-05T07:03:43.954Z,5.93
2022-12-05T07:05:46.018Z,6.60
2022-12-05T07:07:47.670Z,6.00
2022-12-05T07:09:52.295Z,6.28
2022-12-05T07:11:54.032Z,6.40
2022-12-05T07:14:07.252Z,6.65
2022-12-05T07:16:12.319Z,6.13
2022-12-05T07:18:15.016Z,6.47
2022-12-05T07:20:27.889Z,6.13
2022-12-05T07:22:37.298Z,5.50
2022-12-05T07:24:39.042Z,6.13
2022-12-05T07:26:40.568Z,5.78
2022-12-05T07:28:42.173Z,5.82
2022-12-05T07:30:43.890Z,5.93
2022-12-05T07:32:45.446Z,5.70
2022-12-05T07:34:49.750Z,5.65
2022-12-05T07:37:01.243Z,5.70
2022-12-05T07:39:02.902Z,5.32
2022-12-05T07:41:13.352Z,6.00
2022-12-05T07:43:18.171Z,6.30
2022-12-05T07:45:21.062Z,5.78
2022-12-05T07:47:25.426Z,5.85
2022-12-05T07:49:27.157Z,6.03
2022-12-05T07:51:28.939Z,5.72
2022-12-05T07:53:31.524Z,5.75
2022-12-05T07:55:33.097Z,6.00
2022-12-05T07:57:34.767Z,6.32
2022-12-05T07:59:36.377Z,5.95
2022-12-05T08:01:37.910Z,5.85
2022-12-05T08:03:40.087Z,6.22
2022-12-05T08:05:42.138Z,5.97
2022-12-05T08:07:45.988Z,6.20
2022-12-05T08:09:47.525Z,5.90
2022-12-05T08:11:52.515Z,6.30
2022-12-05T08:13:54.777Z,6.30
2022-12-05T08:16:01.113Z,6.47
2022-12-05T08:18:03.114Z,7.03
2022-12-05T08:20:05.281Z,6.45
2022-12-05T08:22:06.875Z,6.60
2022-12-05T08:24:08.930Z,6.72
2022-12-05T08:26:16.474Z,7.40
2022-12-05T08:28:18.128Z,7.05
2022-12-05T08:30:20.120Z,7.47
2022-12-05T08:32:21.719Z,7.82
2022-12-05T08:34:23.467Z,7.80
2022-12-05T08:36:25.597Z,8.48
2022-12-05T08:38:27.444Z,8.52
2022-12-05T08:40:29.035Z,9.25
2022-12-05T08:42:30.614Z,9.00
2022-12-05T08:44:32.198Z,9.48
2022-12-05T08:46:35.887Z,9.00
2022-12-05T08:48:37.561Z,9.20
2022-12-05T08:50:39.351Z,9.57
2022-12-05T08:52:40.842Z,10.05
2022-12-05T08:54:42.288Z,10.13
2022-12-05T08:56:43.942Z,9.98
2022-12-05T08:58:45.618Z,10.65
2022-12-05T09:00:47.182Z,10.23
2022-12-05T09:02:51.896Z,10.50
2022-12-05T09:04:54.180Z,10.50
2022-12-05T09:06:58.258Z,9.95
2022-12-05T09:09:04.653Z,10.15
2022-12-05T09:11:08.333Z,10.43
2022-12-05T09:13:09.866Z,9.35
2022-12-05T09:15:12.604Z,10.57
2022-12-05T09:17:15.405Z,10.10
2022-12-05T09:19:20.753Z,9.80
2022-12-05T09:21:25.767Z,10.27
2022-12-05T09:23:27.954Z,9.85
2022-12-05T09:25:29.493Z,8.88
2022-12-05T09:27:31.146Z,9.30
2022-12-05T09:29:32.786Z,9.98
2022-12-05T09:31:34.899Z,9.57
2022-12-05T09:33:38.324Z,9.68
2022-12-05T09:35:40.536Z,10.35
2022-12-05T09:37:42.169Z,9.32
2022-12-05T09:39:47.099Z,9.93
2022-12-05T09:42:26.755Z,8.57
2022-12-05T09:44:43.314Z,9.35
2022-12-05T09:47:02.900Z,8.60
2022-12-05T09:49:05.842Z,9.23
2022-12-05T09:51:10.488Z,10.23
2022-12-05T09:53:24.316Z,9.40
2022-12-05T09:55:54.851Z,9.40
2022-12-05T09:58:00.340Z,8.95
2022-12-05T10:00:04.560Z,9.25
2022-12-05T10:02:31.217Z,9.02
2022-12-05T10:04:38.512Z,9.70
2022-12-05T10:06:46.620Z,9.30
2022-12-05T10:09:10.018Z,9.65
2022-12-05T10:11:26.535Z,9.30
2022-12-05T10:13:54.684Z,9.40
2022-12-05T10:16:03.299Z,8.70
2022-12-05T10:18:15.227Z,8.88
2022-12-05T10:20:33.982Z,8.70
2022-12-05T10:23:41.209Z,8.60
2022-12-05T10:25:39.820Z,8.52
2022-12-05T10:27:48.969Z,8.38
2022-12-05T10:29:58.725Z,9.15
2022-12-05T10:32:24.528Z,8.55
2022-12-05T10:34:33.948Z,7.72
2022-12-05T10:36:36.414Z,8.65
2022-12-05T10:38:38.901Z,8.57
2022-12-05T10:40:45.447Z,9.20
2022-12-05T10:42:49.394Z,9.18
2022-12-05T10:45:03.799Z,8.63
2022-12-05T10:47:06.370Z,9.43
2022-12-05T10:49:12.729Z,9.35
2022-12-05T10:51:21.789Z,9.27
2022-12-05T10:53:43.314Z,9.18
2022-12-05T10:56:21.297Z,8.95
2022-12-05T10:58:17.814Z,8.20
2022-12-05T11:00:25.264Z,9.23
2022-12-05T11:02:31.327Z,8.75
2022-12-05T11:04:44.332Z,8.80
2022-12-05T11:06:57.058Z,8.85
2022-12-05T11:09:17.141Z,8.32
2022-12-05T11:11:23.522Z,8.88
2022-12-05T11:13:26.253Z,9.07
2022-12-05T11:15:31.884Z,9.10
2022-12-05T11:17:37.072Z,9.55
2022-12-05T11:19:45.986Z,9.07
2022-12-05T11:21:48.887Z,9.80
2022-12-05T11:23:50.762Z,8.77
2022-12-05T11:25:54.655Z,8.50
2022-12-05T11:28:01.820Z,9.00
2022-12-05T11:30:13.206Z,8.95
2022-12-05T11:32:21.440Z,8.60
2022-12-05T11:34:33.384Z,9.95
2022-12-05T11:36:57.437Z,8.57
2022-12-05T11:38:59.286Z,8.32
2022-12-05T11:41:21.267Z,9.02
2022-12-05T11:43:29.435Z,8.95
2022-12-05T11:45:59.087Z,9.25
2022-12-05T11:48:26.527Z,9.15
2022-12-05T11:50:52.768Z,9.27
2022-12-05T11:53:35.805Z,9.55
2022-12-05T11:55:51.392Z,9.20
2022-12-05T11:58:41.015Z,9.20
2022-12-05T12:01:03.606Z,8.60
2022-12-05T12:03:32.874Z,9.25
2022-12-05T12:06:02.294Z,9.18
2022-12-05T12:08:19.394Z,10.18
2022-12-05T12:10:47.850Z,9.55
2022-12-05T12:13:25.288Z,9.50
2022-12-05T12:15:46.708Z,9.07
2022-12-05T12:18:19.313Z,9.15
2022-12-05T12:20:30.621Z,9.93
2022-12-05T12:23:00.023Z,9.20
2022-12-05T12:25:20.384Z,9.10
2022-12-05T12:27:53.012Z,9.38
2022-12-05T12:30:00.848Z,10.07
2022-12-05T12:32:32.250Z,8.85
2022-12-05T12:35:14.249Z,9.93
2022-12-05T12:37:24.797Z,8.85
2022-12-05T12:39:35.336Z,8.70
2022-12-05T12:41:52.023Z,9.10
2022-12-05T12:44:29.471Z,8.40
2022-12-05T12:46:31.227Z,8.65
2022-12-05T12:48:43.509Z,8.32
2022-12-05T12:50:51.333Z,8.77
2022-12-05T12:53:11.821Z,9.48
2022-12-05T12:55:32.536Z,9.02
2022-12-05T12:57:54.959Z,8.27
2022-12-05T13:00:03.251Z,8.35
2022-12-05T13:02:15.703Z,8.85
2022-12-05T13:04:28.692Z,8.95
2022-12-05T13:06:52.859Z,7.93
2022-12-05T13:09:03.645Z,7.38
2022-12-05T13:11:14.102Z,8.18
2022-12-05T13:15:41.331Z,8.23
2022-12-05T13:17:45.792Z,7.40
2022-12-05T13:19:52.732Z,7.55
2022-12-05T13:21:57.336Z,7.40
2022-12-05T13:24:03.323Z,8.07
2022-12-05T13:26:14.366Z,7.95
2022-12-05T13:28:46.177Z,8.13
2022-12-05T13:30:57.842Z,7.75
2022-12-05T13:33:08.725Z,7.30
2022-12-05T13:35:42.854Z,7.05
2022-12-05T13:38:06.186Z,6.90
2022-12-05T13:40:51.468Z,6.60
2022-12-05T13:43:04.775Z,6.25
2022-12-05T13:45:19.473Z,7.20
2022-12-05T13:47:26.364Z,6.88
2022-12-05T13:49:36.371Z,6.97
2022-12-05T13:51:42.338Z,6.55
2022-12-05T13:53:50.539Z,6.57
2022-12-05T13:56:03.640Z,6.80
2022-12-05T13:58:20.107Z,6.10
2022-12-05T14:00:26.399Z,6.55
2022-12-05T14:02:43.322Z,6.55
2022-12-05T14:04:50.490Z,6.80
2022-12-05T14:06:52.760Z,6.70
2022-12-05T14:08:54.434Z,6.95
2022-12-05T14:11:03.230Z,6.32
2022-12-05T14:13:14.860Z,6.85
2022-12-05T14:15:37.882Z,6.00
2022-12-05T14:17:44.358Z,5.82
2022-12-05T14:20:00.728Z,5.57
2022-12-05T14:22:08.394Z,5.35
2022-12-05T14:24:32.598Z,5.35
2022-12-05T14:27:08.166Z,5.18
2022-12-05T14:29:37.532Z,5.03
2022-12-05T14:32:04.697Z,5.22
2022-12-05T14:34:18.355Z,5.40
2022-12-05T14:36:29.212Z,6.22
2022-12-05T14:38:33.285Z,6.03
2022-12-05T14:40:44.287Z,5.90
2022-12-05T14:43:02.853Z,5.72
2022-12-05T14:45:31.461Z,5.60
2022-12-05T14:47:34.470Z,6.00
2022-12-05T14:50:21.062Z,5.97
2022-12-05T14:52:26.103Z,6.53
2022-12-05T14:54:27.801Z,6.72
2022-12-05T14:56:31.853Z,7.22
2022-12-05T14:58:48.705Z,8.48
2022-12-05T15:01:03.376Z,7.55
2022-12-05T15:03:05.925Z,7.80
2022-12-05T15:05:31.701Z,7.80
2022-12-05T15:07:38.815Z,6.97
2022-12-05T15:09:50.269Z,7.45
2022-12-05T15:11:52.796Z,7.47
2022-12-05T15:14:19.472Z,6.95
2022-12-05T15:16:22.886Z,7.55
2022-12-05T15:18:30.087Z,7.90
2022-12-05T15:20:49.435Z,7.45
2022-12-05T15:22:52.246Z,7.45
2022-12-05T15:24:54.488Z,7.40
2022-12-05T15:27:01.590Z,8.05
2022-12-05T15:29:13.580Z,8.27
2022-12-05T15:31:15.243Z,8.35
2022-12-05T15:33:16.808Z,8.55
2022-12-05T15:35:21.688Z,8.63
2022-12-05T15:37:54.041Z,8.70
2022-12-05T15:40:03.852Z,8.85
2022-12-05T15:42:14.595Z,8.65
2022-12-05T15:44:16.172Z,8.02
2022-12-05T15:46:27.978Z,8.57
2022-12-05T15:48:30.277Z,8.07
2022-12-05T15:50:44.171Z,8.25
2022-12-05T15:52:51.547Z,7.95
2022-12-05T15:54:54.432Z,7.85
2022-12-05T15:57:01.988Z,7.60
2022-12-05T15:59:10.583Z,8.55
2022-12-05T16:01:19.436Z,9.05
2022-12-05T16:03:39.561Z,8.70
2022-12-05T16:05:52.235Z,9.60
2022-12-05T16:07:54.556Z,9.88
2022-12-05T16:09:59.199Z,10.07
2022-12-05T16:12:04.090Z,8.82
2022-12-05T16:14:07.664Z,9.75
2022-12-05T16:18:32.208Z,8.02
2022-12-05T16:20:36.020Z,8.02
2022-12-05T16:22:48.307Z,8.00
2022-12-05T16:25:05.507Z,8.15
2022-12-05T16:27:36.754Z,7.90
2022-12-05T16:29:38.674Z,7.40
2022-12-05T16:31:42.154Z,7.10
2022-12-05T16:33:45.144Z,7.57
2022-12-05T16:35:49.326Z,6.90
2022-12-05T16:38:25.989Z,7.00
2022-12-05T16:40:27.658Z,6.65
2022-12-05T16:42:30.935Z,6.43
2022-12-05T16:44:50.496Z,6.40
2022-12-05T16:46:56.752Z,7.03
2022-12-05T16:49:13.520Z,7.20
2022-12-05T16:51:21.928Z,7.00
2022-12-05T16:53:32.804Z,7.40
2022-12-05T16:55:37.770Z,7.10
2022-12-05T16:57:39.355Z,6.88
2022-12-05T16:59:43.018Z,7.53
2022-12-05T17:01:44.921Z,6.75
2022-12-05T17:03:47.318Z,6.72
2022-12-05T17:05:48.977Z,6.35
2022-12-05T17:07:51.912Z,5.88
2022-12-05T17:09:53.752Z,5.78
2022-12-05T17:12:03.056Z,5.28
2022-12-05T17:14:04.827Z,5.22
2022-12-05T17:16:06.722Z,5.10
2022-12-05T17:18:29.559Z,5.10
2022-12-05T17:20:33.201Z,4.97
2022-12-05T17:22:35.141Z,5.00
2022-12-05T17:24:36.974Z,4.88
2022-12-05T17:26:38.931Z,4.68
2022-12-05T17:28:41.116Z,4.93
2022-12-05T17:30:42.868Z,4.68
2022-12-05T17:32:44.803Z,4.75
2022-12-05T17:34:46.447Z,5.00
2022-12-05T17:36:48.396Z,5.25
2022-12-05T17:38:50.629Z,5.53
2022-12-05T17:40:52.618Z,5.60
2022-12-05T17:42:54.152Z,6.03
2022-12-05T17:44:55.780Z,6.50
2022-12-05T17:46:58.329Z,7.15
2022-12-05T17:49:02.571Z,7.90
2022-12-05T17:51:06.526Z,8.40
2022-12-05T17:53:16.998Z,8.85
2022-12-05T17:55:29.318Z,8.77
2022-12-05T17:57:31.089Z,10.13
2022-12-05T17:59:32.946Z,11.32
2022-12-05T18:01:34.531Z,19.17
2022-12-05T18:03:36.413Z,21.00
2022-12-05T18:05:38.207Z,19.58
2022-12-05T18:07:41.732Z,16.00
2022-12-05T18:09:43.563Z,14.15
2022-12-05T18:11:45.235Z,11.60
2022-12-05T18:13:46.887Z,9.40
2022-12-05T18:15:49.133Z,7.47
2022-12-05T18:17:51.014Z,7.35
2022-12-05T18:19:55.841Z,6.90
2022-12-05T18:21:57.579Z,6.43
2022-12-05T18:24:00.195Z,6.30
2022-12-05T18:26:02.504Z,6.28
2022-12-05T18:28:04.275Z,6.45
2022-12-05T18:30:07.083Z,6.88
2022-12-05T18:32:08.947Z,6.28
2022-12-05T18:34:10.581Z,6.57
2022-12-05T18:36:15.861Z,6.75
2022-12-05T18:38:17.568Z,7.28
2022-12-05T18:40:19.340Z,7.57
2022-12-05T18:42:21.272Z,7.70
2022-12-05T18:44:23.032Z,8.45
2022-12-05T18:46:24.627Z,7.97
2022-12-05T18:48:47.202Z,8.27
2022-12-05T18:50:49.132Z,7.57
2022-12-05T18:52:51.082Z,6.72
2022-12-05T18:55:03.346Z,6.60
2022-12-05T18:57:14.400Z,5.93
2022-12-05T18:59:20.527Z,5.35
2022-12-05T19:01:25.613Z,5.80
2022-12-05T19:03:27.380Z,5.57
2022-12-05T19:05:32.796Z,5.82
2022-12-05T19:07:34.591Z,6.88
2022-12-05T19:09:36.504Z,6.88
2022-12-05T19:11:47.009Z,7.28
2022-12-05T19:13:49.434Z,7.68
2022-12-05T19:15:50.952Z,7.57
2022-12-05T19:17:52.835Z,7.75
2022-12-05T19:19:57.121Z,7.82
2022-12-05T19:21:59.240Z,7.18
2022-12-05T19:24:05.338Z,6.90
2022-12-05T19:26:08.587Z,6.57
2022-12-05T19:28:10.340Z,6.38
2022-12-05T19:30:12.456Z,6.63
2022-12-05T19:32:14.961Z,6.47
2022-12-05T19:34:16.645Z,5.97
2022-12-05T19:36:28.028Z,6.25
2022-12-05T19:38:33.351Z,5.72
2022-12-05T19:40:34.894Z,6.15
2022-12-05T19:42:36.691Z,6.35
2022-12-05T19:44:38.892Z,6.50
2022-12-05T19:46:41.649Z,6.60
2022-12-05T19:48:43.925Z,6.10
2022-12-05T19:50:52.955Z,5.82
2022-12-05T19:52:54.508Z,6.30
2022-12-05T19:54:59.091Z,6.18
2022-12-05T19:57:00.681Z,6.55
2022-12-05T19:59:03.314Z,6.95
2022-12-05T20:01:09.128Z,7.10
2022-12-05T20:03:12.427Z,7.10
2022-12-05T20:05:14.163Z,6.75
2022-12-05T20:07:15.806Z,6.60
2022-12-05T20:09:21.602Z,5.78
2022-12-05T20:11:29.011Z,6.72
2022-12-05T20:13:47.435Z,7.00
2022-12-05T20:15:49.683Z,6.70
2022-12-05T20:17:53.292Z,6.45
2022-12-05T20:19:55.266Z,6.63
2022-12-05T20:21:58.887Z,6.55
2022-12-05T20:24:02.396Z,6.55
2022-12-05T20:26:09.340Z,6.55
2022-12-05T20:28:10.813Z,7.20
2022-12-05T20:30:12.654Z,6.18
2022-12-05T20:32:14.511Z,7.65
2022-12-05T20:34:22.312Z,6.82
2022-12-05T20:36:27.394Z,7.65
2022-12-05T20:38:28.842Z,7.88
2022-12-05T20:40:30.578Z,8.38
2022-12-05T20:42:32.172Z,8.77
2022-12-05T20:44:36.016Z,8.57
2022-12-05T20:46:37.653Z,9.30
2022-12-05T20:48:45.312Z,8.13
2022-12-05T20:50:49.749Z,7.32
2022-12-05T20:52:53.385Z,7.68
2022-12-05T20:54:55.241Z,6.95
2022-12-05T20:56:56.819Z,7.25
2022-12-05T20:59:06.879Z,6.75
2022-12-05T21:01:10.362Z,7.30
2022-12-05T21:03:16.938Z,7.07
2022-12-05T21:05:18.935Z,7.72
2022-12-05T21:07:20.508Z,8.18
2022-12-05T21:09:30.134Z,8.25
2022-12-05T21:11:32.540Z,8.75
2022-12-05T21:13:34.828Z,8.35
2022-12-05T21:15:36.985Z,8.15
2022-12-05T21:17:38.772Z,8.00
2022-12-05T21:19:40.472Z,7.43
2022-12-05T21:21:41.979Z,8.18
2022-12-05T21:23:45.171Z,6.70
2022-12-05T21:25:46.840Z,6.47
2022-12-05T21:27:48.413Z,6.72
2022-12-05T21:29:49.986Z,7.45
2022-12-05T21:31:51.918Z,6.93
2022-12-05T21:33:56.303Z,6.55
2022-12-05T21:35:58.378Z,6.60
2022-12-05T21:38:01.103Z,7.15
2022-12-05T21:40:04.589Z,7.22
2022-12-05T21:42:06.344Z,6.88
2022-12-05T21:44:08.125Z,7.38
2022-12-05T21:46:09.983Z,7.35
2022-12-05T21:48:12.052Z,7.53
2022-12-05T21:50:14.113Z,7.40
2022-12-05T21:52:16.136Z,7.82
2022-12-05T21:54:17.690Z,7.25
2022-12-05T21:56:23.176Z,7.45
2022-12-05T21:58:24.790Z,7.18
2022-12-05T22:00:26.658Z,7.88
2022-12-05T22:02:28.277Z,8.55
2022-12-05T22:04:29.946Z,8.75
2022-12-05T22:06:35.079Z,7.60
2022-12-05T22:08:38.050Z,7.90
2022-12-05T22:10:39.644Z,6.53
2022-12-05T22:12:41.462Z,7.82
2022-12-05T22:14:43.197Z,7.45
2022-12-05T22:16:45.307Z,7.32
2022-12-05T22:18:47.451Z,7.55
2022-12-05T22:20:58.849Z,7.15
2022-12-05T22:23:00.445Z,6.30
2022-12-05T22:25:02.195Z,8.02
2022-12-05T22:27:03.977Z,6.60
2022-12-05T22:29:05.625Z,7.63
2022-12-05T22:31:11.918Z,6.70
2022-12-05T22:33:15.154Z,7.03
2022-12-05T22:35:17.026Z,7.25
2022-12-05T22:37:18.905Z,7.35
2022-12-05T22:39:20.649Z,7.30
2022-12-05T22:41:24.590Z,6.60
2022-12-05T22:43:30.162Z,6.95
2022-12-05T22:45:31.789Z,7.18
2022-12-05T22:47:33.341Z,7.45
2022-12-05T22:49:34.983Z,7.72
2022-12-05T22:51:38.017Z,7.05
2022-12-05T22:53:40.341Z,7.47
2022-12-05T22:55:45.039Z,7.65
2022-12-05T22:57:46.613Z,7.63
2022-12-05T22:59:48.229Z,7.53
2022-12-05T23:01:49.765Z,6.65
2022-12-05T23:03:55.804Z,7.50
2022-12-05T23:05:57.672Z,6.72
2022-12-05T23:07:59.478Z,6.95
2022-12-05T23:10:01.635Z,6.97
2022-12-05T23:12:03.894Z,6.60
2022-12-05T23:14:06.085Z,5.97
2022-12-05T23:16:18.588Z,6.57
2022-12-05T23:18:20.628Z,6.22
2022-12-05T23:20:22.234Z,7.13
2022-12-05T23:22:23.993Z,6.82
2022-12-05T23:24:25.490Z,6.18
2022-12-05T23:26:36.513Z,6.85
2022-12-05T23:28:38.201Z,6.22
2022-12-05T23:30:39.960Z,6.38
2022-12-05T23:32:41.653Z,6.70
2022-12-05T23:34:43.369Z,6.57
2022-12-05T23:36:45.138Z,7.18
2022-12-05T23:38:47.351Z,7.13
2022-12-05T23:41:00.135Z,6.95
2022-12-05T23:43:02.019Z,6.75
2022-12-05T23:45:04.262Z,7.32
2022-12-05T23:47:06.135Z,7.15
2022-12-05T23:49:07.758Z,7.18
2022-12-05T23:51:13.577Z,7.10
2022-12-05T23:53:15.282Z,7.72
2022-12-05T23:55:17.074Z,7.80
2022-12-05T23:57:18.900Z,7.75
2022-12-05T23:59:20.461Z,7.53
